Terminal Aerodrome Forecast
Issued by NWS Tuscon, AZ

Current Version | Previous Version | Text Only | Print | Product List | Glossary On
Versions: 1 2 3 4 5 6 7 8 9 10 11 12
233
FTUS45 KTWC 181733
TAFTUS
TAF
KTUS 181733Z 1818/1918 17005KT P6SM FEW110 SCT250
     FM182000 32008KT P6SM FEW100 SCT250
     FM190400 23007KT P6SM SCT100 BKN250
     FM190700 17006KT P6SM FEW100 SCT150 BKN250=

USA.gov is the U.S. government's official web portal to all federal, state and local government web resources and services.